sensor_id;sensor_type;location;lat;lon;timestamp;P1;durP1;ratioP1;P2;durP2;ratioP2
75169;SDS011;63749;49.186;9.222;2023-08-21T00:00:59;11.63;;;7.50;;
75169;SDS011;63749;49.186;9.222;2023-08-21T00:03:25;13.65;;;8.10;;
75169;SDS011;63749;49.186;9.222;2023-08-21T00:05:50;11.67;;;7.60;;
75169;SDS011;63749;49.186;9.222;2023-08-21T00:08:16;9.57;;;7.17;;
75169;SDS011;63749;49.186;9.222;2023-08-21T00:10:41;11.47;;;7.03;;
75169;SDS011;63749;49.186;9.222;2023-08-21T00:13:06;10.93;;;7.00;;
75169;SDS011;63749;49.186;9.222;2023-08-21T00:15:32;9.98;;;6.97;;
75169;SDS011;63749;49.186;9.222;2023-08-21T00:17:57;11.57;;;7.27;;
75169;SDS011;63749;49.186;9.222;2023-08-21T00:20:23;10.35;;;7.10;;
75169;SDS011;63749;49.186;9.222;2023-08-21T00:22:49;12.00;;;7.17;;
75169;SDS011;63749;49.186;9.222;2023-08-21T00:25:14;10.87;;;7.13;;
75169;SDS011;63749;49.186;9.222;2023-08-21T00:27:40;12.27;;;7.10;;
75169;SDS011;63749;49.186;9.222;2023-08-21T00:30:05;10.33;;;7.20;;
75169;SDS011;63749;49.186;9.222;2023-08-21T00:32:31;11.60;;;7.30;;
75169;SDS011;63749;49.186;9.222;2023-08-21T00:34:56;12.27;;;6.77;;
75169;SDS011;63749;49.186;9.222;2023-08-21T00:37:21;11.07;;;7.22;;
75169;SDS011;63749;49.186;9.222;2023-08-21T00:39:47;13.03;;;7.30;;
75169;SDS011;63749;49.186;9.222;2023-08-21T00:42:12;10.20;;;7.13;;
75169;SDS011;63749;49.186;9.222;2023-08-21T00:44:37;9.33;;;6.80;;
75169;SDS011;63749;49.186;9.222;2023-08-21T00:47:03;11.03;;;6.90;;
75169;SDS011;63749;49.186;9.222;2023-08-21T00:49:28;10.20;;;6.78;;
75169;SDS011;63749;49.186;9.222;2023-08-21T00:51:54;10.97;;;7.20;;
75169;SDS011;63749;49.186;9.222;2023-08-21T00:54:19;10.97;;;7.20;;
75169;SDS011;63749;49.186;9.222;2023-08-21T00:56:45;12.13;;;7.00;;
75169;SDS011;63749;49.186;9.222;2023-08-21T00:59:11;12.20;;;6.83;;
75169;SDS011;63749;49.186;9.222;2023-08-21T01:01:37;10.25;;;6.90;;
75169;SDS011;63749;49.186;9.222;2023-08-21T01:04:02;11.20;;;7.33;;
75169;SDS011;63749;49.186;9.222;2023-08-21T01:06:28;11.95;;;7.30;;
75169;SDS011;63749;49.186;9.222;2023-08-21T01:17:23;12.75;;;7.10;;
75169;SDS011;63749;49.186;9.222;2023-08-21T01:19:49;10.40;;;7.77;;
75169;SDS011;63749;49.186;9.222;2023-08-21T01:22:15;11.20;;;7.28;;
75169;SDS011;63749;49.186;9.222;2023-08-21T01:24:40;10.97;;;7.40;;
75169;SDS011;63749;49.186;9.222;2023-08-21T01:27:05;11.50;;;7.57;;
75169;SDS011;63749;49.186;9.222;2023-08-21T01:29:31;13.03;;;7.80;;
75169;SDS011;63749;49.186;9.222;2023-08-21T01:35:06;9.43;;;7.37;;
75169;SDS011;63749;49.186;9.222;2023-08-21T01:37:32;12.68;;;8.30;;
75169;SDS011;63749;49.186;9.222;2023-08-21T01:39:58;11.70;;;7.97;;
75169;SDS011;63749;49.186;9.222;2023-08-21T01:42:24;11.93;;;8.33;;
75169;SDS011;63749;49.186;9.222;2023-08-21T01:44:49;12.45;;;8.25;;
75169;SDS011;63749;49.186;9.222;2023-08-21T01:47:14;12.23;;;8.20;;
75169;SDS011;63749;49.186;9.222;2023-08-21T01:49:40;12.53;;;7.83;;
75169;SDS011;63749;49.186;9.222;2023-08-21T01:52:05;11.30;;;7.73;;
75169;SDS011;63749;49.186;9.222;2023-08-21T01:54:30;11.33;;;8.17;;
75169;SDS011;63749;49.186;9.222;2023-08-21T01:56:56;11.25;;;7.78;;
75169;SDS011;63749;49.186;9.222;2023-08-21T01:59:22;11.57;;;7.90;;
75169;SDS011;63749;49.186;9.222;2023-08-21T02:01:49;13.15;;;8.15;;
75169;SDS011;63749;49.186;9.222;2023-08-21T02:04:14;15.90;;;8.17;;
75169;SDS011;63749;49.186;9.222;2023-08-21T02:06:39;12.40;;;8.10;;
75169;SDS011;63749;49.186;9.222;2023-08-21T02:09:05;14.70;;;7.90;;
75169;SDS011;63749;49.186;9.222;2023-08-21T02:11:30;12.85;;;8.30;;
75169;SDS011;63749;49.186;9.222;2023-08-21T02:13:55;12.73;;;8.03;;
75169;SDS011;63749;49.186;9.222;2023-08-21T02:16:21;10.70;;;7.67;;
75169;SDS011;63749;49.186;9.222;2023-08-21T02:18:47;13.33;;;8.00;;
75169;SDS011;63749;49.186;9.222;2023-08-21T02:21:12;13.73;;;8.35;;
75169;SDS011;63749;49.186;9.222;2023-08-21T02:23:38;10.80;;;7.37;;
75169;SDS011;63749;49.186;9.222;2023-08-21T02:26:03;9.60;;;7.50;;
75169;SDS011;63749;49.186;9.222;2023-08-21T02:28:28;13.90;;;7.90;;
75169;SDS011;63749;49.186;9.222;2023-08-21T02:30:54;10.50;;;7.83;;
75169;SDS011;63749;49.186;9.222;2023-08-21T02:33:19;13.87;;;7.87;;
75169;SDS011;63749;49.186;9.222;2023-08-21T02:35:44;11.43;;;7.80;;
75169;SDS011;63749;49.186;9.222;2023-08-21T02:38:10;10.70;;;7.73;;
75169;SDS011;63749;49.186;9.222;2023-08-21T02:40:35;13.07;;;8.00;;
75169;SDS011;63749;49.186;9.222;2023-08-21T02:43:00;13.57;;;8.60;;
75169;SDS011;63749;49.186;9.222;2023-08-21T02:45:26;17.45;;;7.90;;
75169;SDS011;63749;49.186;9.222;2023-08-21T02:47:51;12.47;;;8.63;;
75169;SDS011;63749;49.186;9.222;2023-08-21T02:50:17;14.00;;;8.13;;
75169;SDS011;63749;49.186;9.222;2023-08-21T02:52:42;13.03;;;8.43;;
75169;SDS011;63749;49.186;9.222;2023-08-21T02:55:07;13.00;;;8.00;;
75169;SDS011;63749;49.186;9.222;2023-08-21T02:57:33;12.83;;;8.13;;
75169;SDS011;63749;49.186;9.222;2023-08-21T02:59:58;14.07;;;8.50;;
75169;SDS011;63749;49.186;9.222;2023-08-21T03:02:24;12.50;;;7.60;;
75169;SDS011;63749;49.186;9.222;2023-08-21T03:04:49;9.73;;;7.63;;
75169;SDS011;63749;49.186;9.222;2023-08-21T03:07:15;15.17;;;7.80;;
75169;SDS011;63749;49.186;9.222;2023-08-21T03:09:41;11.00;;;7.80;;
75169;SDS011;63749;49.186;9.222;2023-08-21T03:12:07;11.70;;;7.80;;
75169;SDS011;63749;49.186;9.222;2023-08-21T03:14:33;10.55;;;7.38;;
75169;SDS011;63749;49.186;9.222;2023-08-21T03:16:58;14.73;;;8.27;;
75169;SDS011;63749;49.186;9.222;2023-08-21T03:19:23;11.00;;;7.50;;
75169;SDS011;63749;49.186;9.222;2023-08-21T03:21:49;11.17;;;7.80;;
75169;SDS011;63749;49.186;9.222;2023-08-21T03:24:14;11.77;;;8.20;;
75169;SDS011;63749;49.186;9.222;2023-08-21T03:26:40;14.30;;;7.80;;
75169;SDS011;63749;49.186;9.222;2023-08-21T03:29:05;11.73;;;8.07;;
75169;SDS011;63749;49.186;9.222;2023-08-21T03:31:30;13.82;;;7.70;;
75169;SDS011;63749;49.186;9.222;2023-08-21T03:33:56;15.10;;;8.00;;
75169;SDS011;63749;49.186;9.222;2023-08-21T03:36:22;14.33;;;8.40;;
75169;SDS011;63749;49.186;9.222;2023-08-21T03:38:55;14.63;;;8.20;;
75169;SDS011;63749;49.186;9.222;2023-08-21T03:41:24;12.15;;;7.80;;
75169;SDS011;63749;49.186;9.222;2023-08-21T03:43:49;11.83;;;7.50;;
75169;SDS011;63749;49.186;9.222;2023-08-21T03:46:15;13.53;;;8.40;;
75169;SDS011;63749;49.186;9.222;2023-08-21T03:48:40;11.67;;;7.73;;
75169;SDS011;63749;49.186;9.222;2023-08-21T03:51:05;13.40;;;7.67;;
75169;SDS011;63749;49.186;9.222;2023-08-21T03:53:31;13.53;;;7.80;;
75169;SDS011;63749;49.186;9.222;2023-08-21T03:55:56;11.70;;;7.90;;
75169;SDS011;63749;49.186;9.222;2023-08-21T03:58:21;13.27;;;8.20;;
75169;SDS011;63749;49.186;9.222;2023-08-21T04:00:47;13.13;;;8.10;;
75169;SDS011;63749;49.186;9.222;2023-08-21T04:03:12;13.20;;;8.30;;
75169;SDS011;63749;49.186;9.222;2023-08-21T04:05:37;13.10;;;8.40;;
75169;SDS011;63749;49.186;9.222;2023-08-21T04:08:03;12.18;;;8.07;;
75169;SDS011;63749;49.186;9.222;2023-08-21T04:10:29;13.80;;;8.83;;
75169;SDS011;63749;49.186;9.222;2023-08-21T04:12:54;11.48;;;8.70;;
75169;SDS011;63749;49.186;9.222;2023-08-21T04:15:19;18.13;;;8.60;;
75169;SDS011;63749;49.186;9.222;2023-08-21T04:17:45;12.80;;;8.10;;
75169;SDS011;63749;49.186;9.222;2023-08-21T04:20:10;14.83;;;8.77;;
75169;SDS011;63749;49.186;9.222;2023-08-21T04:22:36;15.85;;;8.68;;
75169;SDS011;63749;49.186;9.222;2023-08-21T04:25:01;24.07;;;8.10;;
75169;SDS011;63749;49.186;9.222;2023-08-21T04:27:26;14.30;;;8.33;;
75169;SDS011;63749;49.186;9.222;2023-08-21T04:29:52;15.03;;;8.70;;
75169;SDS011;63749;49.186;9.222;2023-08-21T04:32:18;13.15;;;8.27;;
75169;SDS011;63749;49.186;9.222;2023-08-21T04:34:43;14.07;;;8.87;;
75169;SDS011;63749;49.186;9.222;2023-08-21T04:37:09;14.67;;;8.17;;
75169;SDS011;63749;49.186;9.222;2023-08-21T04:39:34;10.93;;;8.33;;
75169;SDS011;63749;49.186;9.222;2023-08-21T04:42:01;13.70;;;8.50;;
75169;SDS011;63749;49.186;9.222;2023-08-21T04:44:26;15.20;;;8.43;;
75169;SDS011;63749;49.186;9.222;2023-08-21T04:46:55;13.65;;;8.63;;
75169;SDS011;63749;49.186;9.222;2023-08-21T04:49:20;15.17;;;9.07;;
75169;SDS011;63749;49.186;9.222;2023-08-21T04:51:45;15.13;;;9.00;;
75169;SDS011;63749;49.186;9.222;2023-08-21T04:54:11;14.10;;;8.77;;
75169;SDS011;63749;49.186;9.222;2023-08-21T04:56:36;14.20;;;8.60;;
75169;SDS011;63749;49.186;9.222;2023-08-21T04:59:01;12.90;;;8.50;;
75169;SDS011;63749;49.186;9.222;2023-08-21T05:01:27;14.45;;;8.52;;
75169;SDS011;63749;49.186;9.222;2023-08-21T05:03:53;12.87;;;8.43;;
75169;SDS011;63749;49.186;9.222;2023-08-21T05:06:19;13.18;;;8.80;;
75169;SDS011;63749;49.186;9.222;2023-08-21T05:08:45;13.97;;;8.50;;
75169;SDS011;63749;49.186;9.222;2023-08-21T05:11:10;16.23;;;8.83;;
75169;SDS011;63749;49.186;9.222;2023-08-21T05:13:35;15.90;;;8.90;;
75169;SDS011;63749;49.186;9.222;2023-08-21T05:16:01;15.17;;;8.43;;
75169;SDS011;63749;49.186;9.222;2023-08-21T05:18:26;13.30;;;8.60;;
75169;SDS011;63749;49.186;9.222;2023-08-21T05:20:53;12.15;;;9.25;;
75169;SDS011;63749;49.186;9.222;2023-08-21T05:23:20;17.60;;;9.03;;
75169;SDS011;63749;49.186;9.222;2023-08-21T05:25:46;17.05;;;9.00;;
75169;SDS011;63749;49.186;9.222;2023-08-21T05:28:13;14.77;;;8.73;;
75169;SDS011;63749;49.186;9.222;2023-08-21T05:30:39;14.18;;;8.95;;
75169;SDS011;63749;49.186;9.222;2023-08-21T05:33:05;16.67;;;9.30;;
75169;SDS011;63749;49.186;9.222;2023-08-21T05:35:33;12.43;;;9.07;;
75169;SDS011;63749;49.186;9.222;2023-08-21T05:38:00;15.43;;;8.60;;
75169;SDS011;63749;49.186;9.222;2023-08-21T05:40:28;13.57;;;8.25;;
75169;SDS011;63749;49.186;9.222;2023-08-21T05:42:54;14.03;;;8.30;;
75169;SDS011;63749;49.186;9.222;2023-08-21T05:45:19;15.60;;;8.70;;
75169;SDS011;63749;49.186;9.222;2023-08-21T05:47:45;16.30;;;8.77;;
75169;SDS011;63749;49.186;9.222;2023-08-21T05:50:10;14.17;;;9.23;;
75169;SDS011;63749;49.186;9.222;2023-08-21T05:52:35;14.47;;;8.70;;
75169;SDS011;63749;49.186;9.222;2023-08-21T05:55:01;17.63;;;8.80;;
75169;SDS011;63749;49.186;9.222;2023-08-21T05:57:26;14.15;;;8.85;;
75169;SDS011;63749;49.186;9.222;2023-08-21T05:59:52;14.53;;;8.40;;
75169;SDS011;63749;49.186;9.222;2023-08-21T06:02:17;13.00;;;8.20;;
75169;SDS011;63749;49.186;9.222;2023-08-21T06:04:43;12.20;;;8.13;;
75169;SDS011;63749;49.186;9.222;2023-08-21T06:07:08;14.15;;;8.15;;
75169;SDS011;63749;49.186;9.222;2023-08-21T06:09:34;14.80;;;8.50;;
75169;SDS011;63749;49.186;9.222;2023-08-21T06:12:01;15.43;;;8.20;;
75169;SDS011;63749;49.186;9.222;2023-08-21T06:14:26;12.70;;;7.55;;
75169;SDS011;63749;49.186;9.222;2023-08-21T06:17:01;13.10;;;8.55;;
75169;SDS011;63749;49.186;9.222;2023-08-21T06:19:27;13.90;;;8.35;;
75169;SDS011;63749;49.186;9.222;2023-08-21T06:21:56;14.23;;;8.80;;
75169;SDS011;63749;49.186;9.222;2023-08-21T06:24:22;14.15;;;8.77;;
75169;SDS011;63749;49.186;9.222;2023-08-21T06:26:48;15.82;;;9.20;;
75169;SDS011;63749;49.186;9.222;2023-08-21T06:29:13;16.47;;;8.70;;
75169;SDS011;63749;49.186;9.222;2023-08-21T06:31:38;12.43;;;8.50;;
75169;SDS011;63749;49.186;9.222;2023-08-21T06:34:04;13.47;;;8.67;;
75169;SDS011;63749;49.186;9.222;2023-08-21T06:36:30;13.70;;;8.52;;
75169;SDS011;63749;49.186;9.222;2023-08-21T06:38:55;16.20;;;8.20;;
75169;SDS011;63749;49.186;9.222;2023-08-21T06:41:21;13.38;;;8.57;;
75169;SDS011;63749;49.186;9.222;2023-08-21T06:43:46;11.63;;;8.70;;
75169;SDS011;63749;49.186;9.222;2023-08-21T06:46:12;12.75;;;8.15;;
75169;SDS011;63749;49.186;9.222;2023-08-21T06:48:38;12.30;;;7.30;;
75169;SDS011;63749;49.186;9.222;2023-08-21T06:51:07;12.02;;;7.57;;
75169;SDS011;63749;49.186;9.222;2023-08-21T06:53:32;11.90;;;7.40;;
75169;SDS011;63749;49.186;9.222;2023-08-21T06:55:58;8.70;;;7.07;;
75169;SDS011;63749;49.186;9.222;2023-08-21T06:58:24;9.87;;;7.30;;
75169;SDS011;63749;49.186;9.222;2023-08-21T07:00:49;16.30;;;7.73;;
75169;SDS011;63749;49.186;9.222;2023-08-21T07:03:14;12.33;;;8.20;;
75169;SDS011;63749;49.186;9.222;2023-08-21T07:05:40;12.33;;;8.00;;
75169;SDS011;63749;49.186;9.222;2023-08-21T07:08:05;10.43;;;7.60;;
75169;SDS011;63749;49.186;9.222;2023-08-21T07:10:35;10.73;;;7.97;;
75169;SDS011;63749;49.186;9.222;2023-08-21T07:13:03;16.50;;;7.95;;
75169;SDS011;63749;49.186;9.222;2023-08-21T07:15:29;10.40;;;7.53;;
75169;SDS011;63749;49.186;9.222;2023-08-21T07:17:55;10.60;;;7.70;;
75169;SDS011;63749;49.186;9.222;2023-08-21T07:20:21;12.17;;;7.90;;
75169;SDS011;63749;49.186;9.222;2023-08-21T07:22:46;10.93;;;8.10;;
75169;SDS011;63749;49.186;9.222;2023-08-21T07:25:12;11.73;;;8.23;;
75169;SDS011;63749;49.186;9.222;2023-08-21T07:27:37;11.52;;;8.35;;
75169;SDS011;63749;49.186;9.222;2023-08-21T07:30:03;11.83;;;7.57;;
75169;SDS011;63749;49.186;9.222;2023-08-21T07:32:29;14.38;;;8.15;;
75169;SDS011;63749;49.186;9.222;2023-08-21T07:34:54;13.07;;;8.03;;
75169;SDS011;63749;49.186;9.222;2023-08-21T07:37:19;12.40;;;8.23;;
75169;SDS011;63749;49.186;9.222;2023-08-21T07:39:45;13.35;;;8.10;;
75169;SDS011;63749;49.186;9.222;2023-08-21T07:42:13;11.80;;;7.93;;
75169;SDS011;63749;49.186;9.222;2023-08-21T07:44:39;12.10;;;8.10;;
75169;SDS011;63749;49.186;9.222;2023-08-21T07:47:05;11.87;;;8.43;;
75169;SDS011;63749;49.186;9.222;2023-08-21T07:49:31;11.60;;;8.00;;
75169;SDS011;63749;49.186;9.222;2023-08-21T07:51:57;11.70;;;8.20;;
75169;SDS011;63749;49.186;9.222;2023-08-21T07:54:22;12.43;;;8.02;;
75169;SDS011;63749;49.186;9.222;2023-08-21T07:56:49;10.73;;;8.13;;
75169;SDS011;63749;49.186;9.222;2023-08-21T07:59:14;11.73;;;8.20;;
75169;SDS011;63749;49.186;9.222;2023-08-21T08:01:39;11.17;;;8.13;;
75169;SDS011;63749;49.186;9.222;2023-08-21T08:04:04;11.50;;;8.70;;
75169;SDS011;63749;49.186;9.222;2023-08-21T08:06:31;13.83;;;8.63;;
75169;SDS011;63749;49.186;9.222;2023-08-21T08:08:56;13.25;;;8.82;;
75169;SDS011;63749;49.186;9.222;2023-08-21T08:11:22;11.40;;;8.53;;
75169;SDS011;63749;49.186;9.222;2023-08-21T08:13:47;11.87;;;8.70;;
75169;SDS011;63749;49.186;9.222;2023-08-21T08:16:13;11.63;;;8.57;;
75169;SDS011;63749;49.186;9.222;2023-08-21T08:18:38;12.60;;;9.27;;
75169;SDS011;63749;49.186;9.222;2023-08-21T08:21:03;11.90;;;8.80;;
75169;SDS011;63749;49.186;9.222;2023-08-21T08:23:30;13.45;;;8.80;;
75169;SDS011;63749;49.186;9.222;2023-08-21T08:25:55;11.13;;;8.60;;
75169;SDS011;63749;49.186;9.222;2023-08-21T08:28:22;13.38;;;8.60;;
75169;SDS011;63749;49.186;9.222;2023-08-21T08:30:47;13.23;;;8.83;;
75169;SDS011;63749;49.186;9.222;2023-08-21T08:33:12;12.40;;;9.00;;
75169;SDS011;63749;49.186;9.222;2023-08-21T08:35:38;12.07;;;8.90;;
75169;SDS011;63749;49.186;9.222;2023-08-21T08:38:05;12.90;;;8.77;;
75169;SDS011;63749;49.186;9.222;2023-08-21T08:40:30;14.55;;;8.88;;
75169;SDS011;63749;49.186;9.222;2023-08-21T08:42:56;10.10;;;8.83;;
75169;SDS011;63749;49.186;9.222;2023-08-21T08:45:27;15.50;;;9.50;;
75169;SDS011;63749;49.186;9.222;2023-08-21T08:47:55;14.90;;;9.48;;
75169;SDS011;63749;49.186;9.222;2023-08-21T08:50:24;12.27;;;9.23;;
75169;SDS011;63749;49.186;9.222;2023-08-21T08:52:50;13.17;;;9.63;;
75169;SDS011;63749;49.186;9.222;2023-08-21T08:55:15;13.52;;;9.50;;
75169;SDS011;63749;49.186;9.222;2023-08-21T08:57:41;15.40;;;9.80;;
75169;SDS011;63749;49.186;9.222;2023-08-21T09:00:06;15.53;;;9.93;;
75169;SDS011;63749;49.186;9.222;2023-08-21T09:02:32;12.85;;;9.70;;
75169;SDS011;63749;49.186;9.222;2023-08-21T09:04:58;13.77;;;9.80;;
75169;SDS011;63749;49.186;9.222;2023-08-21T09:07:25;14.90;;;10.37;;
75169;SDS011;63749;49.186;9.222;2023-08-21T09:09:51;18.23;;;10.20;;
75169;SDS011;63749;49.186;9.222;2023-08-21T09:12:17;13.25;;;9.90;;
75169;SDS011;63749;49.186;9.222;2023-08-21T09:14:44;17.23;;;9.98;;
75169;SDS011;63749;49.186;9.222;2023-08-21T09:17:10;14.48;;;10.20;;
75169;SDS011;63749;49.186;9.222;2023-08-21T09:19:38;13.60;;;9.90;;
75169;SDS011;63749;49.186;9.222;2023-08-21T09:22:16;16.63;;;10.33;;
75169;SDS011;63749;49.186;9.222;2023-08-21T09:27:33;16.77;;;9.80;;
75169;SDS011;63749;49.186;9.222;2023-08-21T09:30:00;15.57;;;9.57;;
75169;SDS011;63749;49.186;9.222;2023-08-21T09:32:27;11.85;;;9.60;;
75169;SDS011;63749;49.186;9.222;2023-08-21T09:34:53;16.63;;;9.70;;
75169;SDS011;63749;49.186;9.222;2023-08-21T09:37:20;14.80;;;9.68;;
75169;SDS011;63749;49.186;9.222;2023-08-21T09:39:52;17.33;;;10.13;;
75169;SDS011;63749;49.186;9.222;2023-08-21T09:42:18;13.00;;;9.40;;
75169;SDS011;63749;49.186;9.222;2023-08-21T09:44:45;14.13;;;10.40;;
75169;SDS011;63749;49.186;9.222;2023-08-21T09:47:13;15.25;;;9.60;;
75169;SDS011;63749;49.186;9.222;2023-08-21T09:49:39;11.53;;;8.80;;
75169;SDS011;63749;49.186;9.222;2023-08-21T09:52:05;11.25;;;7.70;;
75169;SDS011;63749;49.186;9.222;2023-08-21T09:54:34;12.80;;;8.00;;
75169;SDS011;63749;49.186;9.222;2023-08-21T09:57:01;11.50;;;7.80;;
75169;SDS011;63749;49.186;9.222;2023-08-21T09:59:29;9.17;;;7.10;;
75169;SDS011;63749;49.186;9.222;2023-08-21T10:01:55;10.63;;;7.47;;
75169;SDS011;63749;49.186;9.222;2023-08-21T10:04:23;12.57;;;7.10;;
75169;SDS011;63749;49.186;9.222;2023-08-21T10:06:49;12.20;;;6.57;;
75169;SDS011;63749;49.186;9.222;2023-08-21T10:09:16;8.95;;;6.32;;
75169;SDS011;63749;49.186;9.222;2023-08-21T10:11:42;10.93;;;6.70;;
75169;SDS011;63749;49.186;9.222;2023-08-21T10:14:08;10.02;;;6.57;;
75169;SDS011;63749;49.186;9.222;2023-08-21T10:16:36;8.65;;;6.20;;
75169;SDS011;63749;49.186;9.222;2023-08-21T10:19:03;10.03;;;6.40;;
75169;SDS011;63749;49.186;9.222;2023-08-21T10:21:36;8.40;;;6.28;;
75169;SDS011;63749;49.186;9.222;2023-08-21T10:24:02;9.02;;;6.05;;
75169;SDS011;63749;49.186;9.222;2023-08-21T10:26:28;8.53;;;6.60;;
75169;SDS011;63749;49.186;9.222;2023-08-21T10:29:00;7.47;;;5.17;;
75169;SDS011;63749;49.186;9.222;2023-08-21T10:31:28;7.85;;;5.07;;
75169;SDS011;63749;49.186;9.222;2023-08-21T10:33:55;8.40;;;5.30;;
75169;SDS011;63749;49.186;9.222;2023-08-21T10:39:18;6.55;;;4.70;;
75169;SDS011;63749;49.186;9.222;2023-08-21T10:42:06;8.15;;;4.82;;
75169;SDS011;63749;49.186;9.222;2023-08-21T10:44:34;8.07;;;5.18;;
75169;SDS011;63749;49.186;9.222;2023-08-21T10:47:17;9.13;;;4.77;;
75169;SDS011;63749;49.186;9.222;2023-08-21T10:49:53;7.78;;;4.93;;
75169;SDS011;63749;49.186;9.222;2023-08-21T10:52:30;8.07;;;5.18;;
75169;SDS011;63749;49.186;9.222;2023-08-21T10:55:01;7.88;;;4.40;;
75169;SDS011;63749;49.186;9.222;2023-08-21T10:57:31;8.75;;;5.40;;
75169;SDS011;63749;49.186;9.222;2023-08-21T10:59:59;7.90;;;5.20;;
75169;SDS011;63749;49.186;9.222;2023-08-21T11:02:30;8.85;;;5.00;;
75169;SDS011;63749;49.186;9.222;2023-08-21T11:04:57;12.05;;;5.35;;
75169;SDS011;63749;49.186;9.222;2023-08-21T11:07:23;9.95;;;5.00;;
75169;SDS011;63749;49.186;9.222;2023-08-21T11:09:49;7.90;;;5.15;;
75169;SDS011;63749;49.186;9.222;2023-08-21T11:12:17;6.80;;;4.97;;
75169;SDS011;63749;49.186;9.222;2023-08-21T11:14:44;6.65;;;4.00;;
75169;SDS011;63749;49.186;9.222;2023-08-21T11:17:10;11.70;;;4.82;;
75169;SDS011;63749;49.186;9.222;2023-08-21T11:19:37;8.40;;;5.10;;
75169;SDS011;63749;49.186;9.222;2023-08-21T11:22:03;10.52;;;5.22;;
75169;SDS011;63749;49.186;9.222;2023-08-21T11:24:30;9.85;;;5.00;;
75169;SDS011;63749;49.186;9.222;2023-08-21T11:27:02;8.05;;;5.50;;
75169;SDS011;63749;49.186;9.222;2023-08-21T11:29:29;10.90;;;5.57;;
75169;SDS011;63749;49.186;9.222;2023-08-21T11:32:01;7.33;;;5.23;;
75169;SDS011;63749;49.186;9.222;2023-08-21T11:34:28;7.25;;;5.25;;
75169;SDS011;63749;49.186;9.222;2023-08-21T11:36:53;8.95;;;5.50;;
75169;SDS011;63749;49.186;9.222;2023-08-21T11:39:19;11.10;;;5.50;;
75169;SDS011;63749;49.186;9.222;2023-08-21T11:42:18;11.73;;;5.70;;
75169;SDS011;63749;49.186;9.222;2023-08-21T11:44:41;7.50;;;5.75;;
75169;SDS011;63749;49.186;9.222;2023-08-21T11:47:11;9.05;;;5.43;;
75169;SDS011;63749;49.186;9.222;2023-08-21T11:49:40;7.20;;;5.27;;
75169;SDS011;63749;49.186;9.222;2023-08-21T11:52:06;7.80;;;5.50;;
75169;SDS011;63749;49.186;9.222;2023-08-21T11:54:33;9.20;;;5.63;;
75169;SDS011;63749;49.186;9.222;2023-08-21T11:57:00;8.90;;;5.97;;
75169;SDS011;63749;49.186;9.222;2023-08-21T11:59:29;7.80;;;5.93;;
75169;SDS011;63749;49.186;9.222;2023-08-21T12:01:54;8.55;;;5.55;;
75169;SDS011;63749;49.186;9.222;2023-08-21T12:04:20;8.20;;;5.43;;
75169;SDS011;63749;49.186;9.222;2023-08-21T12:06:45;7.70;;;5.20;;
75169;SDS011;63749;49.186;9.222;2023-08-21T12:09:11;8.73;;;5.27;;
75169;SDS011;63749;49.186;9.222;2023-08-21T12:11:36;10.40;;;5.30;;
75169;SDS011;63749;49.186;9.222;2023-08-21T12:14:03;7.97;;;5.57;;
75169;SDS011;63749;49.186;9.222;2023-08-21T12:16:29;8.57;;;5.43;;
75169;SDS011;63749;49.186;9.222;2023-08-21T12:18:54;8.67;;;5.60;;
75169;SDS011;63749;49.186;9.222;2023-08-21T12:21:22;8.63;;;5.60;;
75169;SDS011;63749;49.186;9.222;2023-08-21T12:23:48;9.25;;;5.72;;
75169;SDS011;63749;49.186;9.222;2023-08-21T12:26:13;8.47;;;5.70;;
75169;SDS011;63749;49.186;9.222;2023-08-21T12:28:45;8.25;;;5.20;;
75169;SDS011;63749;49.186;9.222;2023-08-21T12:31:11;9.10;;;5.50;;
75169;SDS011;63749;49.186;9.222;2023-08-21T12:33:36;10.07;;;5.50;;
75169;SDS011;63749;49.186;9.222;2023-08-21T12:36:01;11.18;;;5.30;;
75169;SDS011;63749;49.186;9.222;2023-08-21T12:38:28;7.10;;;5.50;;
75169;SDS011;63749;49.186;9.222;2023-08-21T12:40:54;7.28;;;5.47;;
75169;SDS011;63749;49.186;9.222;2023-08-21T12:43:19;9.13;;;5.80;;
75169;SDS011;63749;49.186;9.222;2023-08-21T12:45:44;11.00;;;5.70;;
75169;SDS011;63749;49.186;9.222;2023-08-21T12:48:10;11.38;;;6.35;;
75169;SDS011;63749;49.186;9.222;2023-08-21T12:50:35;11.70;;;5.57;;
75169;SDS011;63749;49.186;9.222;2023-08-21T12:53:01;8.27;;;5.37;;
75169;SDS011;63749;49.186;9.222;2023-08-21T12:55:27;8.43;;;5.23;;
75169;SDS011;63749;49.186;9.222;2023-08-21T12:57:53;7.85;;;6.15;;
75169;SDS011;63749;49.186;9.222;2023-08-21T13:00:20;9.02;;;6.13;;
75169;SDS011;63749;49.186;9.222;2023-08-21T13:02:45;8.90;;;6.10;;
75169;SDS011;63749;49.186;9.222;2023-08-21T13:05:11;11.50;;;6.40;;
75169;SDS011;63749;49.186;9.222;2023-08-21T13:07:36;9.47;;;5.93;;
75169;SDS011;63749;49.186;9.222;2023-08-21T13:10:02;12.10;;;6.47;;
75169;SDS011;63749;49.186;9.222;2023-08-21T13:12:27;8.32;;;6.03;;
75169;SDS011;63749;49.186;9.222;2023-08-21T13:14:53;7.15;;;6.20;;
75169;SDS011;63749;49.186;9.222;2023-08-21T13:17:19;8.17;;;6.40;;
75169;SDS011;63749;49.186;9.222;2023-08-21T13:19:44;9.33;;;6.80;;
75169;SDS011;63749;49.186;9.222;2023-08-21T13:22:10;8.35;;;6.20;;
75169;SDS011;63749;49.186;9.222;2023-08-21T13:24:35;9.87;;;5.70;;
75169;SDS011;63749;49.186;9.222;2023-08-21T13:27:00;9.00;;;6.77;;
75169;SDS011;63749;49.186;9.222;2023-08-21T13:29:26;11.70;;;6.90;;
75169;SDS011;63749;49.186;9.222;2023-08-21T13:31:51;9.27;;;5.60;;
75169;SDS011;63749;49.186;9.222;2023-08-21T13:34:17;9.13;;;7.03;;
75169;SDS011;63749;49.186;9.222;2023-08-21T13:36:42;9.53;;;5.70;;
75169;SDS011;63749;49.186;9.222;2023-08-21T13:39:08;7.20;;;5.30;;
75169;SDS011;63749;49.186;9.222;2023-08-21T13:41:35;9.20;;;6.63;;
75169;SDS011;63749;49.186;9.222;2023-08-21T13:44:01;9.25;;;6.22;;
75169;SDS011;63749;49.186;9.222;2023-08-21T13:46:26;10.67;;;5.37;;
75169;SDS011;63749;49.186;9.222;2023-08-21T13:48:52;8.67;;;5.97;;
75169;SDS011;63749;49.186;9.222;2023-08-21T13:51:17;7.93;;;5.13;;
75169;SDS011;63749;49.186;9.222;2023-08-21T13:53:42;7.07;;;5.47;;
75169;SDS011;63749;49.186;9.222;2023-08-21T13:56:08;9.13;;;6.77;;
75169;SDS011;63749;49.186;9.222;2023-08-21T13:58:33;9.70;;;7.00;;
75169;SDS011;63749;49.186;9.222;2023-08-21T14:00:59;7.80;;;6.27;;
75169;SDS011;63749;49.186;9.222;2023-08-21T14:03:24;9.77;;;7.40;;
75169;SDS011;63749;49.186;9.222;2023-08-21T14:05:49;9.90;;;7.20;;
75169;SDS011;63749;49.186;9.222;2023-08-21T14:08:15;10.37;;;6.67;;
75169;SDS011;63749;49.186;9.222;2023-08-21T14:10:40;10.10;;;6.70;;
75169;SDS011;63749;49.186;9.222;2023-08-21T14:13:05;7.90;;;6.57;;
75169;SDS011;63749;49.186;9.222;2023-08-21T14:15:33;8.32;;;6.50;;
75169;SDS011;63749;49.186;9.222;2023-08-21T14:17:58;8.88;;;6.38;;
75169;SDS011;63749;49.186;9.222;2023-08-21T14:20:24;9.13;;;4.83;;
75169;SDS011;63749;49.186;9.222;2023-08-21T14:22:49;7.43;;;5.80;;
75169;SDS011;63749;49.186;9.222;2023-08-21T14:25:14;10.50;;;6.07;;
75169;SDS011;63749;49.186;9.222;2023-08-21T14:27:40;8.98;;;6.40;;
75169;SDS011;63749;49.186;9.222;2023-08-21T14:30:06;9.57;;;6.40;;
75169;SDS011;63749;49.186;9.222;2023-08-21T14:32:32;10.85;;;6.45;;
75169;SDS011;63749;49.186;9.222;2023-08-21T14:34:57;8.03;;;4.83;;
75169;SDS011;63749;49.186;9.222;2023-08-21T14:37:23;6.27;;;4.60;;
75169;SDS011;63749;49.186;9.222;2023-08-21T14:39:48;9.82;;;5.20;;
75169;SDS011;63749;49.186;9.222;2023-08-21T14:42:14;10.10;;;6.73;;
75169;SDS011;63749;49.186;9.222;2023-08-21T14:44:40;6.35;;;5.00;;
75169;SDS011;63749;49.186;9.222;2023-08-21T14:47:05;6.53;;;4.50;;
75169;SDS011;63749;49.186;9.222;2023-08-21T14:49:31;9.23;;;5.00;;